Time;durP1;ratioP1;P1;durP2;ratioP2;P2;SDS_P1;SDS_P2;PMS_P1;PMS_P2;Temp;Humidity;BMP_temperature;BMP_pressure;BME280_temperature;BME280_humidity;BME280_pressure;Samples;Min_cycle;Max_cycle;Signal;HPM_P1;HPM_P2
2023/04/14 00:01:49;;;;;;;0.20;0.20;;;;;;;6.12;94.12;94549.06;4344038;32;20193;-58
2023/04/14 00:04:16;;;;;;;0.20;0.20;;;;;;;5.89;94.86;94548.03;4342701;32;20194;-58
2023/04/14 00:06:42;;;;;;;0.40;0.40;;;;;;;5.91;95.09;94545.13;4342823;32;20190;-58
2023/04/14 00:09:07;;;;;;;0.43;0.43;;;;;;;5.96;94.52;94545.84;4342070;32;20302;-58
2023/04/14 00:11:33;;;;;;;0.57;0.57;;;;;;;5.89;94.98;94534.09;4341884;32;20261;-58
2023/04/14 00:14:01;;;;;;;0.10;0.10;;;;;;;5.77;95.09;94531.84;4345008;32;20249;-58
2023/04/14 00:16:27;;;;;;;0.40;0.40;;;;;;;5.97;94.35;94536.87;4344083;32;20200;-58
2023/04/14 00:18:55;;;;;;;0.27;0.27;;;;;;;5.92;94.81;94530.91;4344742;32;20286;-58
2023/04/14 00:21:20;;;;;;;0.30;0.30;;;;;;;5.71;96.03;94539.03;4343634;32;20197;-58
2023/04/14 00:23:46;;;;;;;0.20;0.20;;;;;;;6.01;95.69;94532.62;4328051;33;20300;-58
2023/04/14 00:26:11;;;;;;;0.07;0.07;;;;;;;5.91;95.87;94532.75;4335356;32;20194;-57
2023/04/14 00:28:36;;;;;;;0.10;0.10;;;;;;;5.86;95.65;94530.16;4342915;32;20253;-58
2023/04/14 00:31:02;;;;;;;0.20;0.20;;;;;;;5.82;95.87;94527.28;4344751;32;20189;-58
2023/04/14 00:33:27;;;;;;;3.50;0.43;;;;;;;5.85;95.20;94528.56;4334880;32;20203;-58
2023/04/14 00:35:53;;;;;;;0.10;0.10;;;;;;;5.83;95.82;94533.34;4346709;32;20239;-58
2023/04/14 00:38:18;;;;;;;0.30;0.30;;;;;;;5.79;96.28;94529.72;4344767;32;20257;-58
2023/04/14 00:40:46;;;;;;;0.00;0.00;;;;;;;5.91;96.39;94530.13;4344978;32;20203;-58
2023/04/14 00:43:11;;;;;;;0.17;0.17;;;;;;;5.89;96.04;94526.97;4331084;33;20227;-58
2023/04/14 00:45:43;;;;;;;0.07;0.07;;;;;;;5.99;96.14;94523.44;4345620;32;20274;-58
2023/04/14 00:48:09;;;;;;;0.70;0.70;;;;;;;6.09;95.82;94524.06;4347357;32;20206;-58
2023/04/14 00:50:35;;;;;;;0.17;0.17;;;;;;;6.01;95.13;94521.31;4330623;33;20290;-58
2023/04/14 00:53:01;;;;;;;0.20;0.20;;;;;;;5.98;96.29;94527.94;4344085;32;20294;-58
2023/04/14 00:55:26;;;;;;;1.40;1.13;;;;;;;6.11;96.00;94531.69;4334014;32;20181;-58
2023/04/14 00:57:53;;;;;;;0.33;0.33;;;;;;;5.88;96.32;94528.00;4350831;32;20205;-58
2023/04/14 01:00:19;;;;;;;0.30;0.30;;;;;;;5.87;96.48;94532.50;4346944;32;20194;-58
2023/04/14 01:02:44;;;;;;;0.60;0.60;;;;;;;5.92;96.25;94529.06;4330784;32;20332;-58
2023/04/14 01:05:10;;;;;;;0.57;0.57;;;;;;;6.15;95.75;94527.44;4345961;32;20251;-58
2023/04/14 01:07:36;;;;;;;1.00;0.83;;;;;;;6.16;96.28;94529.78;4340965;32;20198;-58
2023/04/14 01:10:02;;;;;;;0.53;0.53;;;;;;;6.11;95.46;94531.69;4353973;32;20208;-58
2023/04/14 01:12:59;;;;;;;1.03;0.80;;;;;;;5.99;96.00;94528.72;4353702;32;20234;-58
2023/04/14 01:15:37;;;;;;;0.33;0.33;;;;;;;5.96;96.33;94532.69;4356813;32;20305;-58
2023/04/14 01:18:25;;;;;;;0.60;0.60;;;;;;;5.84;97.34;94540.16;4359174;32;20285;-58
2023/04/14 01:20:58;;;;;;;0.20;0.20;;;;;;;6.17;95.77;94536.63;4342053;32;20355;-58
2023/04/14 01:23:35;;;;;;;0.27;0.27;;;;;;;6.23;95.64;94532.06;4344244;32;20335;-61
2023/04/14 01:26:25;;;;;;;0.50;0.50;;;;;;;6.14;95.76;94545.06;4353814;32;20312;-59
2023/04/14 01:29:23;;;;;;;0.40;0.40;;;;;;;6.19;95.52;94539.75;4343578;32;20310;-58
2023/04/14 01:32:04;;;;;;;0.50;0.50;;;;;;;6.06;95.38;94543.06;4361991;32;20315;-58
2023/04/14 01:34:52;;;;;;;0.20;0.20;;;;;;;6.13;94.83;94548.00;4339644;32;20317;-58
2023/04/14 01:37:29;;;;;;;1.37;0.90;;;;;;;5.87;94.65;94543.03;4334501;32;20337;-59
2023/04/14 01:40:01;;;;;;;0.30;0.30;;;;;;;6.00;95.10;94552.13;4352522;32;20289;-59
2023/04/14 01:42:30;;;;;;;0.40;0.40;;;;;;;5.97;94.45;94547.41;4350782;32;20317;-59
2023/04/14 01:45:01;;;;;;;0.50;0.50;;;;;;;5.73;92.96;94546.63;4350683;32;20304;-59
2023/04/14 01:47:29;;;;;;;0.40;0.40;;;;;;;5.98;92.45;94535.03;4335357;32;20292;-59
2023/04/14 01:49:56;;;;;;;0.20;0.20;;;;;;;5.80;93.79;94539.19;4343754;32;20352;-60
2023/04/14 01:52:22;;;;;;;0.00;0.00;;;;;;;5.87;93.59;94543.03;4350201;32;20331;-59
2023/04/14 01:54:51;;;;;;;0.20;0.20;;;;;;;5.89;92.63;94542.78;4344391;32;20281;-59
2023/04/14 01:57:21;;;;;;;0.13;0.13;;;;;;;5.81;93.30;94543.37;4335910;32;20189;-58
2023/04/14 01:59:49;;;;;;;0.03;0.03;;;;;;;6.03;92.20;94546.25;4339214;32;20288;-58
2023/04/14 02:02:16;;;;;;;0.10;0.10;;;;;;;6.02;92.15;94555.25;4358507;32;20277;-58
2023/04/14 02:04:42;;;;;;;0.30;0.30;;;;;;;6.07;92.85;94552.53;4346212;32;20320;-58
2023/04/14 02:07:11;;;;;;;0.20;0.20;;;;;;;5.89;92.68;94548.03;4356025;32;20304;-58
2023/04/14 02:09:39;;;;;;;0.27;0.27;;;;;;;5.81;93.43;94546.81;4353235;32;20308;-58
2023/04/14 02:12:06;;;;;;;0.00;0.00;;;;;;;5.82;93.79;94535.19;4353249;32;20282;-58
2023/04/14 02:14:33;;;;;;;0.20;0.20;;;;;;;5.49;94.40;94531.66;4347274;32;20309;-58
2023/04/14 02:17:01;;;;;;;0.10;0.10;;;;;;;5.71;94.82;94548.75;4327430;32;20304;-58
2023/04/14 02:19:28;;;;;;;0.40;0.40;;;;;;;5.71;95.37;94532.97;4344363;32;20285;-59
2023/04/14 02:21:56;;;;;;;0.20;0.20;;;;;;;5.79;95.15;94524.47;4346648;32;20289;-59
2023/04/14 02:24:22;;;;;;;0.43;0.43;;;;;;;5.72;95.14;94526.66;4345042;32;20339;-59
2023/04/14 02:26:57;;;;;;;0.40;0.40;;;;;;;5.85;95.06;94518.03;4361059;32;20285;-58
2023/04/14 02:29:24;;;;;;;0.37;0.37;;;;;;;5.96;94.61;94522.16;4338643;32;20277;-58
2023/04/14 02:31:55;;;;;;;0.23;0.23;;;;;;;5.81;94.90;94515.22;4342938;32;20361;-58
2023/04/14 02:34:24;;;;;;;0.47;0.47;;;;;;;5.72;95.42;94516.13;4356992;32;20282;-58
2023/04/14 02:36:56;;;;;;;0.20;0.20;;;;;;;6.05;94.92;94515.19;4346028;32;20327;-59
2023/04/14 02:39:39;;;;;;;0.87;0.57;;;;;;;5.97;95.24;94515.06;4351327;32;20353;-59
2023/04/14 02:42:13;;;;;;;0.20;0.20;;;;;;;6.06;95.19;94506.22;4352740;32;20281;-58
2023/04/14 02:44:47;;;;;;;0.27;0.27;;;;;;;5.79;95.86;94498.94;4347842;32;20299;-58
2023/04/14 02:47:20;;;;;;;0.40;0.40;;;;;;;5.90;96.03;94498.81;4351887;32;20273;-58
2023/04/14 02:49:50;;;;;;;0.40;0.40;;;;;;;5.85;95.41;94491.72;4352536;32;20285;-58
2023/04/14 02:52:18;;;;;;;0.30;0.30;;;;;;;6.01;95.74;94485.25;4360415;32;20281;-58
2023/04/14 02:54:46;;;;;;;0.20;0.20;;;;;;;5.91;95.66;94495.12;4345927;32;20361;-59
2023/04/14 02:57:12;;;;;;;0.27;0.27;;;;;;;5.94;95.35;94494.56;4356051;32;20289;-58
2023/04/14 02:59:40;;;;;;;0.30;0.30;;;;;;;5.86;95.67;94494.09;4342206;32;20331;-58
2023/04/14 03:02:08;;;;;;;0.63;0.63;;;;;;;5.82;95.46;94487.03;4357905;32;20284;-58
2023/04/14 03:04:37;;;;;;;0.57;0.57;;;;;;;5.82;95.95;94493.06;4353857;32;20286;-58
2023/04/14 03:07:04;;;;;;;0.37;0.30;;;;;;;5.85;95.76;94497.78;4341420;32;20291;-59
2023/04/14 03:09:31;;;;;;;0.20;0.20;;;;;;;5.80;96.12;94497.09;4344155;32;20308;-59
2023/04/14 03:11:57;;;;;;;0.20;0.20;;;;;;;5.89;95.68;94513.81;4355929;32;20292;-59
2023/04/14 03:14:23;;;;;;;0.20;0.20;;;;;;;5.94;95.13;94519.03;4337590;32;20282;-58
2023/04/14 03:16:53;;;;;;;0.20;0.20;;;;;;;5.76;95.57;94517.12;4352100;32;20312;-59
2023/04/14 03:19:22;;;;;;;0.13;0.13;;;;;;;5.78;94.51;94509.75;4354402;32;20407;-59
2023/04/14 03:21:53;;;;;;;0.20;0.20;;;;;;;5.72;93.39;94505.59;4358099;32;20433;-59
2023/04/14 03:24:26;;;;;;;0.20;0.20;;;;;;;5.66;94.06;94498.81;4353750;32;20299;-59
2023/04/14 03:26:56;;;;;;;0.20;0.20;;;;;;;5.57;94.87;94495.28;4328216;32;20360;-59
2023/04/14 03:29:26;;;;;;;0.53;0.53;;;;;;;5.85;94.02;94491.72;4357547;32;20281;-59
2023/04/14 03:32:05;;;;;;;0.20;0.20;;;;;;;5.80;94.40;94491.81;4346058;32;20277;-58
2023/04/14 03:34:35;;;;;;;0.30;0.30;;;;;;;5.79;94.04;94493.66;4346250;32;20277;-58
2023/04/14 03:37:03;;;;;;;0.20;0.20;;;;;;;5.72;94.93;94484.56;4335785;32;20321;-58
2023/04/14 03:39:33;;;;;;;0.27;0.27;;;;;;;5.94;94.43;94484.03;4338979;32;20339;-58
2023/04/14 03:42:00;;;;;;;0.63;0.53;;;;;;;5.76;94.64;94488.19;4335156;32;20339;-58
2023/04/14 03:44:31;;;;;;;0.27;0.27;;;;;;;5.70;94.80;94484.03;4350886;32;20300;-58
2023/04/14 03:46:59;;;;;;;1.50;0.40;;;;;;;5.64;95.48;94482.53;4352021;32;20345;-58
2023/04/14 03:49:26;;;;;;;0.13;0.13;;;;;;;5.76;95.64;94472.41;4358507;32;20295;-58
2023/04/14 03:51:58;;;;;;;0.23;0.23;;;;;;;5.84;95.62;94469.91;4360279;32;20293;-58
2023/04/14 03:54:26;;;;;;;0.37;0.37;;;;;;;6.03;94.77;94472.56;4345467;32;20284;-59
2023/04/14 03:56:55;;;;;;;0.30;0.30;;;;;;;6.02;94.38;94470.25;4359890;32;20289;-58
2023/04/14 03:59:24;;;;;;;0.30;0.30;;;;;;;5.87;94.34;94479.84;4338960;32;20294;-58
2023/04/14 04:01:52;;;;;;;0.33;0.33;;;;;;;5.82;95.25;94481.75;4359207;32;20276;-59
2023/04/14 04:04:17;;;;;;;0.60;0.60;;;;;;;5.93;95.46;94482.47;4345349;32;20290;-58
2023/04/14 04:06:43;;;;;;;0.40;0.40;;;;;;;5.97;95.40;94499.25;4342951;32;21713;-58
2023/04/14 04:09:11;;;;;;;0.20;0.20;;;;;;;5.93;95.48;94498.25;4349371;32;20255;-59
2023/04/14 04:11:38;;;;;;;0.87;0.87;;;;;;;5.98;95.47;94496.34;4341823;32;20219;-58
2023/04/14 04:14:05;;;;;;;0.33;0.33;;;;;;;5.94;95.50;94505.87;4347740;32;20292;-58
2023/04/14 04:16:34;;;;;;;0.70;0.60;;;;;;;6.01;95.96;94497.63;4359518;32;20335;-58
2023/04/14 04:19:04;;;;;;;0.33;0.33;;;;;;;6.33;94.34;94496.88;4343617;32;20304;-58
2023/04/14 04:21:32;;;;;;;0.20;0.20;;;;;;;6.16;94.64;94490.28;4357028;32;20303;-58
2023/04/14 04:24:00;;;;;;;0.33;0.33;;;;;;;6.17;94.89;94489.22;4352285;32;20297;-58
2023/04/14 04:26:26;;;;;;;0.63;0.63;;;;;;;6.31;94.55;94494.53;4352268;32;20328;-58
2023/04/14 04:28:54;;;;;;;3.30;0.93;;;;;;;6.11;95.41;94479.81;4338051;32;20294;-58
2023/04/14 04:31:22;;;;;;;0.40;0.40;;;;;;;6.09;95.87;94471.41;4348859;32;20205;-58
2023/04/14 04:33:48;;;;;;;0.70;0.67;;;;;;;6.18;96.33;94466.31;4359036;32;20287;-58
2023/04/14 04:36:15;;;;;;;0.87;0.67;;;;;;;6.29;95.37;94464.28;4349442;32;20369;-58
2023/04/14 04:38:41;;;;;;;1.00;1.00;;;;;;;6.23;95.14;94466.25;4337114;32;20352;-58
2023/04/14 04:41:07;;;;;;;0.40;0.40;;;;;;;6.11;96.00;94479.81;4347263;32;20308;-58
2023/04/14 04:43:32;;;;;;;0.60;0.60;;;;;;;6.18;96.44;94477.63;4352724;32;20293;-58
2023/04/14 04:45:58;;;;;;;0.63;0.60;;;;;;;6.18;96.77;94488.16;4359900;32;20237;-58
2023/04/14 04:48:24;;;;;;;0.67;0.60;;;;;;;6.18;96.79;94496.06;4354396;32;20213;-57
2023/04/14 04:50:49;;;;;;;1.37;1.27;;;;;;;6.13;97.18;94497.97;4339416;32;20235;-58
2023/04/14 04:53:15;;;;;;;0.60;0.60;;;;;;;6.24;98.04;94498.59;4346451;32;20285;-58
2023/04/14 04:55:41;;;;;;;0.80;0.80;;;;;;;6.01;97.72;94498.41;4359400;32;20237;-57
2023/04/14 04:58:07;;;;;;;0.77;0.77;;;;;;;5.97;98.62;94510.56;4354916;32;20185;-58
2023/04/14 05:00:32;;;;;;;4.77;1.80;;;;;;;6.10;99.01;94504.59;4342806;32;20233;-58
2023/04/14 05:02:58;;;;;;;1.70;1.60;;;;;;;6.19;98.26;94516.06;4360504;32;20278;-57
2023/04/14 05:05:23;;;;;;;1.03;1.03;;;;;;;6.24;97.91;94514.38;4354999;32;20185;-58
2023/04/14 05:07:48;;;;;;;1.10;1.10;;;;;;;6.33;97.23;94517.97;4356027;32;20204;-58
2023/04/14 05:10:14;;;;;;;0.83;0.83;;;;;;;6.34;97.65;94528.22;4353724;32;20190;-58
2023/04/14 05:12:40;;;;;;;0.97;0.97;;;;;;;6.26;97.44;94530.69;4352506;32;20244;-57
2023/04/14 05:15:07;;;;;;;1.03;1.03;;;;;;;6.30;97.15;94540.38;4360646;32;20193;-58
2023/04/14 05:17:33;;;;;;;1.17;1.07;;;;;;;6.24;95.94;94538.09;4351942;32;20339;-57
2023/04/14 05:19:58;;;;;;;0.73;0.73;;;;;;;6.17;95.69;94541.09;4360996;32;20304;-58
2023/04/14 05:22:23;;;;;;;1.47;1.40;;;;;;;6.07;95.91;94549.91;4362036;32;20189;-60
2023/04/14 05:24:49;;;;;;;1.03;1.03;;;;;;;5.95;96.75;94546.91;4349888;32;20219;-58
2023/04/14 05:27:15;;;;;;;1.13;1.13;;;;;;;6.07;96.73;94541.22;4356255;32;20194;-58
2023/04/14 05:29:41;;;;;;;0.87;0.87;;;;;;;6.04;97.67;94542.56;4356413;32;20333;-58
2023/04/14 05:32:07;;;;;;;1.17;1.07;;;;;;;5.91;97.78;94542.50;4346119;32;20197;-58
2023/04/14 05:34:32;;;;;;;0.90;0.90;;;;;;;5.91;97.90;94545.91;4354384;32;20215;-57
2023/04/14 05:36:57;;;;;;;1.50;1.20;;;;;;;5.96;98.47;94540.59;4354036;32;20228;-58
2023/04/14 05:39:23;;;;;;;0.97;0.93;;;;;;;6.03;97.62;94529.69;4358731;32;20248;-58
2023/04/14 05:41:50;;;;;;;0.97;0.97;;;;;;;6.03;98.60;94540.22;4261821;33;20198;-58
2023/04/14 05:44:16;;;;;;;1.13;1.03;;;;;;;6.05;98.45;94533.59;4332806;32;20383;-58
2023/04/14 05:46:47;;;;;;;0.77;0.77;;;;;;;6.10;98.22;94524.88;4297127;32;20299;-58
2023/04/14 05:49:14;;;;;;;0.70;0.70;;;;;;;6.31;97.48;94525.34;4264711;32;20269;-58
2023/04/14 05:51:40;;;;;;;1.13;1.13;;;;;;;6.14;97.98;94516.13;4356615;32;20348;-58
2023/04/14 05:54:05;;;;;;;1.07;1.07;;;;;;;6.27;97.37;94521.72;4329793;32;20286;-59
2023/04/14 05:56:32;;;;;;;2.90;1.37;;;;;;;6.26;97.67;94513.03;4247001;32;20298;-59
2023/04/14 05:58:57;;;;;;;1.83;1.73;;;;;;;6.30;97.39;94508.00;4320719;32;20208;-59
2023/04/14 06:01:27;;;;;;;1.53;1.43;;;;;;;6.31;97.88;94510.34;4354590;32;20298;-59
2023/04/14 06:03:56;;;;;;;0.80;0.80;;;;;;;6.32;97.58;94519.81;4357366;32;20207;-59
2023/04/14 06:06:23;;;;;;;1.67;1.57;;;;;;;6.25;98.21;94523.84;4325464;32;20294;-59
2023/04/14 06:08:49;;;;;;;0.50;0.50;;;;;;;6.18;97.92;94516.34;4318686;32;20282;-58
2023/04/14 06:11:16;;;;;;;1.90;1.60;;;;;;;6.23;98.39;94518.13;4300318;32;20378;-56
2023/04/14 06:13:43;;;;;;;0.73;0.73;;;;;;;6.43;99.94;94531.00;4349343;32;20348;-58
2023/04/14 06:16:08;;;;;;;1.27;0.90;;;;;;;6.80;100.00;94520.37;4354938;32;20323;-58
2023/04/14 06:18:36;;;;;;;1.37;1.27;;;;;;;7.61;100.00;94522.63;4355636;32;20309;-57
2023/04/14 06:21:06;;;;;;;0.87;0.83;;;;;;;7.65;98.67;94526.25;4335654;32;20399;-58
2023/04/14 06:23:33;;;;;;;0.80;0.80;;;;;;;8.00;98.72;94525.50;4328312;32;20333;-55
2023/04/14 06:26:00;;;;;;;2.10;1.20;;;;;;;8.39;98.19;94519.66;4329780;32;20281;-57
2023/04/14 06:28:25;;;;;;;0.87;0.87;;;;;;;8.18;94.34;94524.59;4321894;32;20290;-58
2023/04/14 06:30:53;;;;;;;0.50;0.50;;;;;;;8.53;96.29;94519.63;4345886;32;20285;-57
2023/04/14 06:33:18;;;;;;;1.07;1.03;;;;;;;8.61;94.84;94529.47;4307559;32;20208;-58
2023/04/14 06:35:44;;;;;;;1.00;1.00;;;;;;;8.38;90.52;94526.03;4313122;32;20412;-58
2023/04/14 06:38:12;;;;;;;0.90;0.90;;;;;;;8.69;92.96;94523.50;4329844;32;20211;-57
2023/04/14 06:40:38;;;;;;;2.70;1.63;;;;;;;8.81;93.30;94521.06;4333014;32;20353;-58
2023/04/14 06:43:09;;;;;;;1.63;1.53;;;;;;;8.80;91.71;94532.72;4350883;32;20331;-58
2023/04/14 06:45:37;;;;;;;0.83;0.83;;;;;;;8.79;89.99;94530.38;4319685;32;20212;-57
2023/04/14 06:48:06;;;;;;;1.13;1.13;;;;;;;8.52;89.56;94533.94;4333966;32;20290;-57
2023/04/14 06:50:35;;;;;;;1.47;1.37;;;;;;;8.76;93.12;94529.13;4296723;32;20379;-57
2023/04/14 06:53:04;;;;;;;0.97;0.90;;;;;;;8.59;91.99;94532.44;4326684;32;20288;-57
2023/04/14 06:55:34;;;;;;;0.80;0.47;;;;;;;8.57;89.37;94529.28;4340994;32;20331;-56
2023/04/14 06:58:01;;;;;;;0.43;0.43;;;;;;;8.79;91.98;94533.03;4322996;32;20391;-57
2023/04/14 07:00:28;;;;;;;0.60;0.60;;;;;;;8.82;90.47;94519.22;4310623;32;20307;-58
2023/04/14 07:02:56;;;;;;;0.20;0.20;;;;;;;8.71;90.90;94523.97;4302296;33;20317;-56
2023/04/14 07:05:22;;;;;;;0.40;0.40;;;;;;;8.57;89.11;94525.88;4324016;32;20294;-57
2023/04/14 07:07:49;;;;;;;0.47;0.47;;;;;;;8.25;87.59;94530.25;4268668;32;20279;-58
2023/04/14 07:10:16;;;;;;;0.13;0.13;;;;;;;7.97;88.63;94520.81;4335501;32;20271;-57
2023/04/14 07:12:43;;;;;;;0.30;0.30;;;;;;;8.21;88.61;94523.22;4328110;32;20379;-57
2023/04/14 07:15:13;;;;;;;0.40;0.40;;;;;;;8.49;91.27;94518.69;4335179;32;20368;-57
2023/04/14 07:17:39;;;;;;;0.43;0.43;;;;;;;8.46;88.29;94525.34;4307459;32;20312;-57
2023/04/14 07:20:08;;;;;;;0.93;0.93;;;;;;;8.75;90.03;94522.25;4325085;32;20390;-56
2023/04/14 07:22:36;;;;;;;0.50;0.50;;;;;;;8.67;89.18;94515.06;4312583;32;20325;-56
2023/04/14 07:25:05;;;;;;;0.73;0.73;;;;;;;8.74;89.87;94517.28;4313549;32;20354;-57
2023/04/14 07:27:31;;;;;;;0.37;0.33;;;;;;;8.43;88.57;94519.88;4310468;33;20290;-58
2023/04/14 07:29:59;;;;;;;0.63;0.63;;;;;;;8.76;90.68;94513.25;4322189;32;20286;-57
2023/04/14 07:32:25;;;;;;;0.63;0.63;;;;;;;8.58;87.69;94522.94;4317293;32;20309;-55
2023/04/14 07:34:51;;;;;;;0.33;0.33;;;;;;;8.42;87.52;94528.87;4323952;32;20281;-57
2023/04/14 07:37:20;;;;;;;1.70;1.10;;;;;;;8.78;89.11;94521.66;4332817;32;20277;-58
2023/04/14 07:39:47;;;;;;;1.00;0.90;;;;;;;9.01;85.65;94524.28;4313122;32;20333;-58
2023/04/14 07:42:14;;;;;;;0.60;0.60;;;;;;;8.74;84.13;94530.50;4312873;32;20304;-55
2023/04/14 07:44:40;;;;;;;0.37;0.37;;;;;;;8.28;85.68;94527.03;4323591;32;20297;-57
2023/04/14 07:47:07;;;;;;;0.57;0.57;;;;;;;8.15;87.08;94534.97;4299699;33;20265;-58
2023/04/14 07:49:35;;;;;;;0.73;0.73;;;;;;;7.77;89.43;94534.44;4309240;32;20331;-58
2023/04/14 07:52:01;;;;;;;0.60;0.60;;;;;;;7.66;89.81;94547.06;4302053;32;20296;-57
2023/04/14 07:54:30;;;;;;;0.60;0.60;;;;;;;7.61;90.87;94541.88;4316751;32;20279;-58
2023/04/14 07:56:56;;;;;;;0.33;0.33;;;;;;;7.63;91.40;94549.50;4335843;32;20289;-58
2023/04/14 07:59:44;;;;;;;0.70;0.70;;;;;;;7.45;89.83;94545.88;4318827;32;20283;-57
2023/04/14 08:02:12;;;;;;;0.23;0.23;;;;;;;7.44;91.43;94546.97;4303436;33;20193;-57
2023/04/14 08:04:38;;;;;;;0.43;0.43;;;;;;;7.56;91.16;94540.12;4345016;32;20282;-57
2023/04/14 08:07:05;;;;;;;0.60;0.60;;;;;;;7.35;92.46;94543.44;4312850;32;20282;-55
2023/04/14 08:09:32;;;;;;;0.50;0.50;;;;;;;7.32;91.78;94555.34;4307327;32;20286;-56
2023/04/14 08:11:57;;;;;;;0.10;0.10;;;;;;;7.24;92.29;94558.66;4323623;33;20329;-53
2023/04/14 08:14:22;;;;;;;0.30;0.30;;;;;;;7.61;92.17;94551.66;4308481;33;20353;-57
2023/04/14 08:16:49;;;;;;;1.00;0.93;;;;;;;7.48;91.87;94561.16;4313144;33;20198;-57
2023/04/14 08:19:15;;;;;;;0.13;0.13;;;;;;;7.48;91.52;94563.78;4304195;33;20399;-56
2023/04/14 08:21:44;;;;;;;0.50;0.50;;;;;;;7.46;92.46;94572.00;4336953;32;20348;-56
2023/04/14 08:24:11;;;;;;;1.37;0.93;;;;;;;7.72;92.29;94574.91;4344048;33;20202;-54
2023/04/14 08:26:36;;;;;;;0.40;0.40;;;;;;;7.77;91.40;94572.19;4318407;33;20290;-56
2023/04/14 08:29:05;;;;;;;0.50;0.50;;;;;;;7.72;90.81;94576.78;4276357;33;20305;-53
2023/04/14 08:31:32;;;;;;;0.53;0.53;;;;;;;7.35;92.60;94585.62;4296771;33;20189;-55
2023/04/14 08:33:57;;;;;;;0.53;0.53;;;;;;;7.48;92.13;94575.09;4326014;32;20286;-53
2023/04/14 08:36:24;;;;;;;0.43;0.43;;;;;;;7.45;93.13;94583.63;4343044;32;20277;-58
2023/04/14 08:38:52;;;;;;;0.80;0.80;;;;;;;7.64;92.15;94577.47;4279863;33;20268;-56
2023/04/14 08:41:20;;;;;;;0.60;0.60;;;;;;;7.65;91.76;94573.75;4305761;33;20378;-56
2023/04/14 08:43:48;;;;;;;0.77;0.77;;;;;;;7.80;91.39;94576.09;4289518;33;20361;-56
2023/04/14 08:46:19;;;;;;;0.50;0.47;;;;;;;7.75;91.64;94573.56;4304034;33;20291;-57
2023/04/14 08:48:49;;;;;;;0.63;0.63;;;;;;;7.64;92.52;94574.84;4324562;33;20370;-59
2023/04/14 08:51:31;;;;;;;1.63;0.60;;;;;;;7.76;91.78;94569.84;4310575;32;20386;-59
2023/04/14 08:53:57;;;;;;;0.80;0.80;;;;;;;7.58;91.43;94564.34;4320819;33;20278;-57
2023/04/14 08:56:26;;;;;;;0.40;0.40;;;;;;;7.69;92.19;94569.47;4327850;33;20330;-58
2023/04/14 08:58:52;;;;;;;0.70;0.70;;;;;;;7.72;92.11;94568.84;4311794;33;20325;-58
2023/04/14 09:01:20;;;;;;;0.70;0.70;;;;;;;7.79;92.98;94575.31;4305145;32;20373;-58
2023/04/14 09:03:58;;;;;;;1.23;0.97;;;;;;;7.94;92.55;94567.09;4313334;33;20374;-55
2023/04/14 09:06:27;;;;;;;1.07;0.73;;;;;;;7.92;92.31;94563.16;4305146;32;20270;-57
2023/04/14 09:08:54;;;;;;;2.57;0.97;;;;;;;8.10;91.95;94553.59;4271997;33;20279;-56
2023/04/14 09:11:23;;;;;;;0.83;0.83;;;;;;;8.31;91.12;94554.72;4333183;32;20285;-55
2023/04/14 09:13:49;;;;;;;0.67;0.67;;;;;;;8.01;90.93;94545.56;4301710;33;20335;-58
2023/04/14 09:16:17;;;;;;;0.40;0.40;;;;;;;8.13;91.45;94545.84;4265297;32;22278;-55
2023/04/14 09:18:43;;;;;;;0.30;0.30;;;;;;;8.02;91.34;94544.50;4298978;32;20210;-56
2023/04/14 09:21:10;;;;;;;0.47;0.47;;;;;;;7.96;91.17;94550.94;4294232;33;20298;-57
2023/04/14 09:23:40;;;;;;;0.63;0.63;;;;;;;7.85;90.23;94547.75;4307666;33;20240;-53
2023/04/14 09:26:09;;;;;;;0.50;0.50;;;;;;;7.98;90.60;94551.44;4326252;32;20304;-58
2023/04/14 09:28:35;;;;;;;0.40;0.40;;;;;;;8.13;90.42;94550.34;4327188;32;20354;-59
2023/04/14 09:31:03;;;;;;;1.07;0.87;;;;;;;7.98;89.40;94551.44;4315315;32;20332;-58
2023/04/14 09:33:29;;;;;;;0.50;0.50;;;;;;;7.99;91.05;94553.00;4283070;32;20313;-58
2023/04/14 09:35:56;;;;;;;0.53;0.53;;;;;;;8.06;90.81;94550.75;4269798;33;20298;-55
2023/04/14 09:38:36;;;;;;;0.73;0.73;;;;;;;8.11;90.39;94545.34;4297395;33;20230;-55
2023/04/14 09:41:06;;;;;;;1.70;0.63;;;;;;;8.25;90.23;94534.75;4312629;32;20345;-59
2023/04/14 09:43:32;;;;;;;0.30;0.30;;;;;;;8.32;90.33;94544.91;4316969;32;20355;-58
2023/04/14 09:46:09;;;;;;;0.63;0.63;;;;;;;8.38;89.71;94546.41;4267285;33;20303;-59
2023/04/14 09:48:36;;;;;;;0.83;0.83;;;;;;;8.22;89.44;94551.22;4315230;32;20268;-57
2023/04/14 09:51:08;;;;;;;0.30;0.30;;;;;;;8.20;88.29;94559.44;4301186;33;20290;-57
2023/04/14 09:53:37;;;;;;;0.60;0.53;;;;;;;8.13;90.41;94572.25;4265732;33;20347;-58
2023/04/14 09:56:13;;;;;;;1.17;0.63;;;;;;;8.19;91.89;94588.78;4314639;32;20294;-56
2023/04/14 09:58:44;;;;;;;0.87;0.43;;;;;;;8.21;91.44;94590.06;4319306;32;20329;-57
2023/04/14 10:01:15;;;;;;;0.30;0.30;;;;;;;8.26;89.72;94576.75;4337782;32;20296;-59
2023/04/14 10:03:46;;;;;;;0.20;0.20;;;;;;;8.15;88.38;94569.31;4312446;32;20282;-59
2023/04/14 10:06:18;;;;;;;1.10;1.10;;;;;;;8.28;90.18;94577.22;4317328;32;20313;-58
2023/04/14 10:08:51;;;;;;;0.50;0.50;;;;;;;8.50;90.51;94568.59;4316833;33;20293;-56
2023/04/14 10:11:20;;;;;;;0.30;0.30;;;;;;;8.49;90.75;94580.25;4344829;32;20300;-58
2023/04/14 10:13:57;;;;;;;0.93;0.93;;;;;;;8.43;88.63;94573.50;4349792;32;20369;-59
2023/04/14 10:16:24;;;;;;;0.10;0.10;;;;;;;8.43;89.34;94573.50;4355357;32;20312;-58
2023/04/14 10:18:51;;;;;;;0.70;0.70;;;;;;;8.51;90.01;94566.72;4355602;32;20300;-58
2023/04/14 10:21:21;;;;;;;0.60;0.60;;;;;;;8.35;90.45;94574.19;4359560;32;20333;-58
2023/04/14 10:23:47;;;;;;;0.27;0.27;;;;;;;8.53;89.09;94569.84;4344929;32;20247;-57
2023/04/14 10:26:13;;;;;;;0.47;0.47;;;;;;;8.28;90.84;94571.16;4344535;32;20379;-59
2023/04/14 10:28:50;;;;;;;2.40;1.03;;;;;;;8.48;91.35;94573.41;4350301;32;20291;-57
2023/04/14 10:31:30;;;;;;;0.40;0.40;;;;;;;8.63;91.40;94566.97;4326386;32;20380;-59
2023/04/14 10:33:56;;;;;;;0.70;0.70;;;;;;;8.68;89.57;94569.50;4345483;32;20278;-56
2023/04/14 10:36:27;;;;;;;0.80;0.80;;;;;;;8.74;88.57;94563.00;4353450;32;20226;-57
2023/04/14 10:39:01;;;;;;;0.47;0.47;;;;;;;8.93;88.58;94560.22;4355069;32;20197;-57
2023/04/14 10:41:35;;;;;;;0.60;0.60;;;;;;;9.11;88.00;94561.88;4347496;32;20297;-58
2023/04/14 10:44:01;;;;;;;1.30;0.93;;;;;;;8.95;87.58;94564.09;4341049;32;20299;-57
2023/04/14 10:46:42;;;;;;;0.30;0.30;;;;;;;8.83;88.56;94555.94;4362434;32;20330;-56
2023/04/14 10:49:11;;;;;;;0.40;0.40;;;;;;;8.94;89.26;94557.25;4332655;32;20197;-53
2023/04/14 10:51:36;;;;;;;0.20;0.20;;;;;;;9.46;90.07;94549.59;4348434;32;20255;-52
2023/04/14 10:54:02;;;;;;;0.40;0.40;;;;;;;10.18;89.47;94557.16;4354657;32;20236;-55
2023/04/14 10:56:29;;;;;;;0.30;0.30;;;;;;;10.28;81.97;94550.81;4355987;32;20198;-52
2023/04/14 10:58:55;;;;;;;0.60;0.60;;;;;;;10.74;83.36;94544.91;4343387;32;20204;-54
2023/04/14 11:01:24;;;;;;;0.60;0.60;;;;;;;10.82;80.69;94544.09;4352407;32;20238;-55
2023/04/14 11:03:50;;;;;;;0.57;0.57;;;;;;;10.85;78.64;94538.19;4349634;32;20189;-55
2023/04/14 11:06:54;;;;;;;0.70;0.70;;;;;;;11.00;79.49;94532.41;4352358;32;20287;-54
2023/04/14 11:09:32;;;;;;;3.13;1.30;;;;;;;11.31;75.99;94518.09;4360689;32;20193;-53
2023/04/14 11:12:23;;;;;;;0.60;0.50;;;;;;;11.18;76.54;94511.13;4353763;32;20215;-54
2023/04/14 11:14:48;;;;;;;0.57;0.57;;;;;;;11.38;77.68;94504.34;4346178;32;20182;-54
2023/04/14 11:17:21;;;;;;;0.43;0.43;;;;;;;11.59;79.18;94492.69;4345443;32;20232;-54
2023/04/14 11:19:52;;;;;;;0.70;0.70;;;;;;;11.83;78.75;94486.84;4350279;32;20193;-53
2023/04/14 11:22:42;;;;;;;0.60;0.60;;;;;;;11.39;77.03;94482.78;4358797;32;20189;-54
2023/04/14 11:25:12;;;;;;;0.53;0.53;;;;;;;11.31;77.43;94475.63;4357829;32;20201;-54
2023/04/14 11:27:38;;;;;;;0.83;0.63;;;;;;;11.44;77.65;94479.94;4342439;32;20226;-55
2023/04/14 11:30:18;;;;;;;0.60;0.60;;;;;;;12.18;80.08;94475.97;4354531;32;20208;-55
2023/04/14 11:32:44;;;;;;;0.60;0.60;;;;;;;11.76;77.67;94480.44;4355163;32;20186;-55
2023/04/14 11:35:10;;;;;;;0.50;0.50;;;;;;;12.27;74.96;94489.97;4358450;32;20253;-55
2023/04/14 11:37:36;;;;;;;1.27;1.17;;;;;;;12.52;75.61;94490.87;4354678;32;20189;-55
2023/04/14 11:40:04;;;;;;;0.83;0.83;;;;;;;12.28;72.01;94486.22;4355737;32;20193;-55
2023/04/14 11:42:30;;;;;;;0.30;0.30;;;;;;;12.31;71.28;94489.00;4335284;32;20208;-55
2023/04/14 11:44:57;;;;;;;0.33;0.33;;;;;;;12.02;72.06;94489.84;4360833;32;20207;-53
2023/04/14 11:47:24;;;;;;;0.30;0.30;;;;;;;12.19;67.88;94485.50;4353951;32;20211;-52
2023/04/14 11:49:50;;;;;;;0.87;0.87;;;;;;;12.32;71.72;94474.59;4343622;32;20260;-53